sensor_id;sensor_type;location;lat;lon;timestamp;temperature;humidity
74511;DHT22;62991;50.040;18.400;2024-02-21T00:00:47;7.80;68.70
74511;DHT22;62991;50.040;18.400;2024-02-21T00:03:48;7.80;68.50
74511;DHT22;62991;50.040;18.400;2024-02-21T00:06:49;7.50;69.00
74511;DHT22;62991;50.040;18.400;2024-02-21T00:09:49;7.40;70.20
74511;DHT22;62991;50.040;18.400;2024-02-21T00:12:50;7.60;69.30
74511;DHT22;62991;50.040;18.400;2024-02-21T00:15:51;7.60;69.40
74511;DHT22;62991;50.040;18.400;2024-02-21T00:18:52;7.60;69.50
74511;DHT22;62991;50.040;18.400;2024-02-21T00:21:52;7.60;69.60
74511;DHT22;62991;50.040;18.400;2024-02-21T00:24:53;7.70;69.60
74511;DHT22;62991;50.040;18.400;2024-02-21T00:27:54;7.70;69.40
74511;DHT22;62991;50.040;18.400;2024-02-21T00:30:55;7.70;69.20
74511;DHT22;62991;50.040;18.400;2024-02-21T00:33:55;7.60;69.80
74511;DHT22;62991;50.040;18.400;2024-02-21T00:36:56;7.50;70.10
74511;DHT22;62991;50.040;18.400;2024-02-21T00:39:57;7.50;70.20
74511;DHT22;62991;50.040;18.400;2024-02-21T00:42:57;7.50;70.20
74511;DHT22;62991;50.040;18.400;2024-02-21T00:45:58;7.40;70.60
74511;DHT22;62991;50.040;18.400;2024-02-21T00:48:59;7.40;70.20
74511;DHT22;62991;50.040;18.400;2024-02-21T00:51:59;7.50;70.10
74511;DHT22;62991;50.040;18.400;2024-02-21T00:55:00;7.30;70.80
74511;DHT22;62991;50.040;18.400;2024-02-21T00:58:01;7.00;71.70
74511;DHT22;62991;50.040;18.400;2024-02-21T01:01:01;7.10;71.60
74511;DHT22;62991;50.040;18.400;2024-02-21T01:04:03;7.20;71.40
74511;DHT22;62991;50.040;18.400;2024-02-21T01:07:04;7.00;71.90
74511;DHT22;62991;50.040;18.400;2024-02-21T01:10:06;7.00;71.60
74511;DHT22;62991;50.040;18.400;2024-02-21T01:13:07;6.40;73.10
74511;DHT22;62991;50.040;18.400;2024-02-21T01:16:07;6.20;74.70
74511;DHT22;62991;50.040;18.400;2024-02-21T01:19:08;6.10;74.90
74511;DHT22;62991;50.040;18.400;2024-02-21T01:22:09;6.10;74.90
74511;DHT22;62991;50.040;18.400;2024-02-21T01:25:09;6.20;75.00
74511;DHT22;62991;50.040;18.400;2024-02-21T01:28:10;6.60;74.60
74511;DHT22;62991;50.040;18.400;2024-02-21T01:31:11;7.00;73.70
74511;DHT22;62991;50.040;18.400;2024-02-21T01:34:13;7.20;72.90
74511;DHT22;62991;50.040;18.400;2024-02-21T01:37:14;7.30;72.00
74511;DHT22;62991;50.040;18.400;2024-02-21T01:40:15;7.50;70.90
74511;DHT22;62991;50.040;18.400;2024-02-21T01:43:17;7.60;69.80
74511;DHT22;62991;50.040;18.400;2024-02-21T01:46:18;7.60;70.60
74511;DHT22;62991;50.040;18.400;2024-02-21T01:49:20;7.60;70.20
74511;DHT22;62991;50.040;18.400;2024-02-21T01:52:21;7.50;70.50
74511;DHT22;62991;50.040;18.400;2024-02-21T01:55:21;7.60;70.50
74511;DHT22;62991;50.040;18.400;2024-02-21T01:58:23;7.50;70.90
74511;DHT22;62991;50.040;18.400;2024-02-21T02:01:25;7.60;71.10
74511;DHT22;62991;50.040;18.400;2024-02-21T02:04:25;7.60;71.50
74511;DHT22;62991;50.040;18.400;2024-02-21T02:07:27;7.60;71.40
74511;DHT22;62991;50.040;18.400;2024-02-21T02:10:28;7.70;71.20
74511;DHT22;62991;50.040;18.400;2024-02-21T02:13:28;7.70;71.30
74511;DHT22;62991;50.040;18.400;2024-02-21T02:16:29;7.80;71.20
74511;DHT22;62991;50.040;18.400;2024-02-21T02:19:30;7.80;70.90
74511;DHT22;62991;50.040;18.400;2024-02-21T02:22:32;7.70;71.40
74511;DHT22;62991;50.040;18.400;2024-02-21T02:25:36;7.60;71.80
74511;DHT22;62991;50.040;18.400;2024-02-21T02:28:37;7.70;71.50
74511;DHT22;62991;50.040;18.400;2024-02-21T02:31:37;7.70;71.70
74511;DHT22;62991;50.040;18.400;2024-02-21T02:34:39;7.70;71.50
74511;DHT22;62991;50.040;18.400;2024-02-21T02:37:39;7.80;71.90
74511;DHT22;62991;50.040;18.400;2024-02-21T02:40:41;7.80;71.50
74511;DHT22;62991;50.040;18.400;2024-02-21T02:43:41;7.80;71.30
74511;DHT22;62991;50.040;18.400;2024-02-21T02:46:42;7.60;72.20
74511;DHT22;62991;50.040;18.400;2024-02-21T02:49:43;7.40;72.80
74511;DHT22;62991;50.040;18.400;2024-02-21T02:52:45;7.30;73.60
74511;DHT22;62991;50.040;18.400;2024-02-21T02:55:45;7.30;73.70
74511;DHT22;62991;50.040;18.400;2024-02-21T02:58:46;7.40;73.60
74511;DHT22;62991;50.040;18.400;2024-02-21T03:01:47;7.40;73.50
74511;DHT22;62991;50.040;18.400;2024-02-21T03:04:48;7.20;73.90
74511;DHT22;62991;50.040;18.400;2024-02-21T03:07:49;7.10;74.50
74511;DHT22;62991;50.040;18.400;2024-02-21T03:10:49;7.20;74.40
74511;DHT22;62991;50.040;18.400;2024-02-21T03:13:50;7.10;74.70
74511;DHT22;62991;50.040;18.400;2024-02-21T03:16:51;7.10;74.30
74511;DHT22;62991;50.040;18.400;2024-02-21T03:19:52;7.10;74.40
74511;DHT22;62991;50.040;18.400;2024-02-21T03:22:53;7.10;74.30
74511;DHT22;62991;50.040;18.400;2024-02-21T03:25:53;7.00;74.90
74511;DHT22;62991;50.040;18.400;2024-02-21T03:28:54;7.00;74.70
74511;DHT22;62991;50.040;18.400;2024-02-21T03:31:55;7.10;74.60
74511;DHT22;62991;50.040;18.400;2024-02-21T03:34:56;7.10;74.30
74511;DHT22;62991;50.040;18.400;2024-02-21T03:37:56;7.00;75.10
74511;DHT22;62991;50.040;18.400;2024-02-21T03:40:57;7.00;74.90
74511;DHT22;62991;50.040;18.400;2024-02-21T03:43:58;6.90;75.10
74511;DHT22;62991;50.040;18.400;2024-02-21T03:47:01;6.90;75.30
74511;DHT22;62991;50.040;18.400;2024-02-21T03:50:02;6.70;75.80
74511;DHT22;62991;50.040;18.400;2024-02-21T03:53:03;6.90;75.50
74511;DHT22;62991;50.040;18.400;2024-02-21T03:56:04;7.00;75.00
74511;DHT22;62991;50.040;18.400;2024-02-21T03:59:06;7.20;74.30
74511;DHT22;62991;50.040;18.400;2024-02-21T04:02:07;7.20;73.80
74511;DHT22;62991;50.040;18.400;2024-02-21T04:05:10;7.20;74.00
74511;DHT22;62991;50.040;18.400;2024-02-21T04:08:11;7.30;73.60
74511;DHT22;62991;50.040;18.400;2024-02-21T04:11:12;7.30;73.60
74511;DHT22;62991;50.040;18.400;2024-02-21T04:14:12;7.40;73.20
74511;DHT22;62991;50.040;18.400;2024-02-21T04:17:13;7.40;73.50
74511;DHT22;62991;50.040;18.400;2024-02-21T04:20:15;7.40;73.30
74511;DHT22;62991;50.040;18.400;2024-02-21T04:23:16;7.40;72.90
74511;DHT22;62991;50.040;18.400;2024-02-21T04:26:16;7.40;72.90
74511;DHT22;62991;50.040;18.400;2024-02-21T04:29:17;7.30;73.60
74511;DHT22;62991;50.040;18.400;2024-02-21T04:32:18;7.20;73.20
74511;DHT22;62991;50.040;18.400;2024-02-21T04:35:18;7.20;73.40
74511;DHT22;62991;50.040;18.400;2024-02-21T04:38:19;7.20;73.70
74511;DHT22;62991;50.040;18.400;2024-02-21T04:41:20;7.00;73.80
74511;DHT22;62991;50.040;18.400;2024-02-21T04:44:21;6.90;74.70
74511;DHT22;62991;50.040;18.400;2024-02-21T04:47:22;6.80;74.90
74511;DHT22;62991;50.040;18.400;2024-02-21T04:50:27;6.80;74.90
74511;DHT22;62991;50.040;18.400;2024-02-21T04:53:27;6.70;75.30
74511;DHT22;62991;50.040;18.400;2024-02-21T04:56:28;6.90;74.70
74511;DHT22;62991;50.040;18.400;2024-02-21T04:59:29;7.00;74.50
74511;DHT22;62991;50.040;18.400;2024-02-21T05:02:30;6.70;74.60
74511;DHT22;62991;50.040;18.400;2024-02-21T05:05:30;6.70;74.80
74511;DHT22;62991;50.040;18.400;2024-02-21T05:08:31;6.80;75.10
74511;DHT22;62991;50.040;18.400;2024-02-21T05:11:32;6.80;75.00
74511;DHT22;62991;50.040;18.400;2024-02-21T05:14:32;6.80;74.60
74511;DHT22;62991;50.040;18.400;2024-02-21T05:17:33;6.70;74.80
74511;DHT22;62991;50.040;18.400;2024-02-21T05:20:34;6.60;75.00
74511;DHT22;62991;50.040;18.400;2024-02-21T05:23:34;6.60;75.10
74511;DHT22;62991;50.040;18.400;2024-02-21T05:26:35;6.60;75.50
74511;DHT22;62991;50.040;18.400;2024-02-21T05:29:36;6.50;75.70
74511;DHT22;62991;50.040;18.400;2024-02-21T05:32:36;6.60;75.40
74511;DHT22;62991;50.040;18.400;2024-02-21T05:35:37;6.30;76.30
74511;DHT22;62991;50.040;18.400;2024-02-21T05:38:39;6.20;76.80
74511;DHT22;62991;50.040;18.400;2024-02-21T05:41:40;6.10;76.80
74511;DHT22;62991;50.040;18.400;2024-02-21T05:44:40;5.80;78.10
74511;DHT22;62991;50.040;18.400;2024-02-21T05:47:41;5.90;78.00
74511;DHT22;62991;50.040;18.400;2024-02-21T05:50:42;6.00;77.60
74511;DHT22;62991;50.040;18.400;2024-02-21T05:53:43;6.10;77.40
74511;DHT22;62991;50.040;18.400;2024-02-21T05:56:45;6.10;77.50
74511;DHT22;62991;50.040;18.400;2024-02-21T05:59:46;6.10;77.10
74511;DHT22;62991;50.040;18.400;2024-02-21T06:02:46;6.00;77.60
74511;DHT22;62991;50.040;18.400;2024-02-21T06:05:47;6.10;77.40
74511;DHT22;62991;50.040;18.400;2024-02-21T06:08:48;6.10;77.30
74511;DHT22;62991;50.040;18.400;2024-02-21T06:11:48;6.10;77.60
74511;DHT22;62991;50.040;18.400;2024-02-21T06:14:49;6.30;77.70
74511;DHT22;62991;50.040;18.400;2024-02-21T06:17:50;6.30;77.00
74511;DHT22;62991;50.040;18.400;2024-02-21T06:20:51;6.30;77.10
74511;DHT22;62991;50.040;18.400;2024-02-21T06:23:52;6.20;76.90
74511;DHT22;62991;50.040;18.400;2024-02-21T06:26:53;6.20;77.40
74511;DHT22;62991;50.040;18.400;2024-02-21T06:29:53;6.30;77.20
74511;DHT22;62991;50.040;18.400;2024-02-21T06:32:54;6.20;76.60
74511;DHT22;62991;50.040;18.400;2024-02-21T06:35:58;6.30;76.40
74511;DHT22;62991;50.040;18.400;2024-02-21T06:38:58;6.20;77.20
74511;DHT22;62991;50.040;18.400;2024-02-21T06:41:59;6.10;76.90
74511;DHT22;62991;50.040;18.400;2024-02-21T06:45:00;6.10;78.00
74511;DHT22;62991;50.040;18.400;2024-02-21T06:48:00;6.00;78.20
74511;DHT22;62991;50.040;18.400;2024-02-21T06:51:01;6.00;78.00
74511;DHT22;62991;50.040;18.400;2024-02-21T06:54:02;6.00;78.20
74511;DHT22;62991;50.040;18.400;2024-02-21T06:57:03;6.00;77.80
74511;DHT22;62991;50.040;18.400;2024-02-21T07:00:04;5.90;78.70
74511;DHT22;62991;50.040;18.400;2024-02-21T07:03:08;6.10;78.10
74511;DHT22;62991;50.040;18.400;2024-02-21T07:06:09;5.90;78.70
74511;DHT22;62991;50.040;18.400;2024-02-21T07:09:09;6.00;78.50
74511;DHT22;62991;50.040;18.400;2024-02-21T07:12:10;6.30;78.10
74511;DHT22;62991;50.040;18.400;2024-02-21T07:15:11;6.30;77.30
74511;DHT22;62991;50.040;18.400;2024-02-21T07:18:12;6.40;77.60
74511;DHT22;62991;50.040;18.400;2024-02-21T07:21:12;6.40;77.00
74511;DHT22;62991;50.040;18.400;2024-02-21T07:24:13;6.50;76.70
74511;DHT22;62991;50.040;18.400;2024-02-21T07:27:15;6.50;77.20
74511;DHT22;62991;50.040;18.400;2024-02-21T07:30:16;6.50;76.70
74511;DHT22;62991;50.040;18.400;2024-02-21T07:33:17;6.40;77.10
74511;DHT22;62991;50.040;18.400;2024-02-21T07:36:29;6.30;77.70
74511;DHT22;62991;50.040;18.400;2024-02-21T07:39:36;6.30;77.80
74511;DHT22;62991;50.040;18.400;2024-02-21T07:42:37;6.30;77.80
74511;DHT22;62991;50.040;18.400;2024-02-21T07:45:38;6.30;78.60
74511;DHT22;62991;50.040;18.400;2024-02-21T07:48:40;6.40;78.40
74511;DHT22;62991;50.040;18.400;2024-02-21T07:51:40;6.40;77.80
74511;DHT22;62991;50.040;18.400;2024-02-21T07:54:42;6.50;77.50
74511;DHT22;62991;50.040;18.400;2024-02-21T07:57:43;6.70;77.20
74511;DHT22;62991;50.040;18.400;2024-02-21T08:00:44;6.90;76.50
74511;DHT22;62991;50.040;18.400;2024-02-21T08:03:44;6.90;75.90
74511;DHT22;62991;50.040;18.400;2024-02-21T08:06:45;7.00;76.20
74511;DHT22;62991;50.040;18.400;2024-02-21T08:09:48;7.00;75.30
74511;DHT22;62991;50.040;18.400;2024-02-21T08:12:49;7.10;74.90
74511;DHT22;62991;50.040;18.400;2024-02-21T08:15:50;7.00;75.20
74511;DHT22;62991;50.040;18.400;2024-02-21T08:18:50;7.20;75.30
74511;DHT22;62991;50.040;18.400;2024-02-21T08:21:51;7.40;74.40
74511;DHT22;62991;50.040;18.400;2024-02-21T08:24:52;7.50;74.10
74511;DHT22;62991;50.040;18.400;2024-02-21T08:27:59;7.60;74.10
74511;DHT22;62991;50.040;18.400;2024-02-21T08:31:00;7.80;73.10
74511;DHT22;62991;50.040;18.400;2024-02-21T08:34:01;8.10;72.30
74511;DHT22;62991;50.040;18.400;2024-02-21T08:37:04;8.00;72.30
74511;DHT22;62991;50.040;18.400;2024-02-21T08:40:05;7.90;72.80
74511;DHT22;62991;50.040;18.400;2024-02-21T08:43:08;7.90;73.50
74511;DHT22;62991;50.040;18.400;2024-02-21T08:46:09;7.90;71.90
74511;DHT22;62991;50.040;18.400;2024-02-21T08:49:10;7.60;73.20
74511;DHT22;62991;50.040;18.400;2024-02-21T08:52:11;8.00;72.90
74511;DHT22;62991;50.040;18.400;2024-02-21T08:55:11;8.20;72.30
74511;DHT22;62991;50.040;18.400;2024-02-21T08:58:12;8.10;72.60
74511;DHT22;62991;50.040;18.400;2024-02-21T09:01:14;8.10;73.00
74511;DHT22;62991;50.040;18.400;2024-02-21T09:04:15;7.90;72.90
74511;DHT22;62991;50.040;18.400;2024-02-21T09:07:16;7.70;73.70
74511;DHT22;62991;50.040;18.400;2024-02-21T09:10:17;7.90;72.40
74511;DHT22;62991;50.040;18.400;2024-02-21T09:13:17;8.40;71.80
74511;DHT22;62991;50.040;18.400;2024-02-21T09:16:18;8.50;71.20
74511;DHT22;62991;50.040;18.400;2024-02-21T09:19:19;8.60;69.50
74511;DHT22;62991;50.040;18.400;2024-02-21T09:22:20;8.50;67.90
74511;DHT22;62991;50.040;18.400;2024-02-21T09:25:20;8.40;68.20
74511;DHT22;62991;50.040;18.400;2024-02-21T09:28:21;8.30;68.50
74511;DHT22;62991;50.040;18.400;2024-02-21T09:31:22;8.70;68.80
74511;DHT22;62991;50.040;18.400;2024-02-21T09:34:23;8.90;67.00
74511;DHT22;62991;50.040;18.400;2024-02-21T09:37:24;9.20;66.80
74511;DHT22;62991;50.040;18.400;2024-02-21T09:40:25;9.30;65.60
74511;DHT22;62991;50.040;18.400;2024-02-21T09:43:26;9.60;65.00
74511;DHT22;62991;50.040;18.400;2024-02-21T09:46:48;9.30;65.90
74511;DHT22;62991;50.040;18.400;2024-02-21T09:49:52;9.10;66.50
74511;DHT22;62991;50.040;18.400;2024-02-21T09:52:54;9.20;65.30
74511;DHT22;62991;50.040;18.400;2024-02-21T09:55:57;8.90;65.80
74511;DHT22;62991;50.040;18.400;2024-02-21T09:58:57;8.80;66.30
74511;DHT22;62991;50.040;18.400;2024-02-21T10:01:59;8.80;66.70
74511;DHT22;62991;50.040;18.400;2024-02-21T10:05:02;8.70;67.50
74511;DHT22;62991;50.040;18.400;2024-02-21T10:08:05;8.80;67.50
74511;DHT22;62991;50.040;18.400;2024-02-21T10:11:06;8.90;67.70
74511;DHT22;62991;50.040;18.400;2024-02-21T10:14:09;8.90;67.10
74511;DHT22;62991;50.040;18.400;2024-02-21T10:17:16;8.90;67.20
74511;DHT22;62991;50.040;18.400;2024-02-21T10:20:18;8.80;67.80
74511;DHT22;62991;50.040;18.400;2024-02-21T10:23:19;8.70;67.90
74511;DHT22;62991;50.040;18.400;2024-02-21T10:26:20;8.80;67.80
74511;DHT22;62991;50.040;18.400;2024-02-21T10:29:21;8.50;68.20
74511;DHT22;62991;50.040;18.400;2024-02-21T10:32:22;8.50;68.70
74511;DHT22;62991;50.040;18.400;2024-02-21T10:35:31;8.30;68.80
74511;DHT22;62991;50.040;18.400;2024-02-21T10:38:31;8.40;69.00
74511;DHT22;62991;50.040;18.400;2024-02-21T10:41:34;8.70;68.60
74511;DHT22;62991;50.040;18.400;2024-02-21T10:44:38;8.50;69.00
74511;DHT22;62991;50.040;18.400;2024-02-21T10:47:40;8.60;69.10
74511;DHT22;62991;50.040;18.400;2024-02-21T10:51:03;8.60;69.10
74511;DHT22;62991;50.040;18.400;2024-02-21T10:57:13;8.70;68.60
74511;DHT22;62991;50.040;18.400;2024-02-21T11:00:17;8.70;68.30
74511;DHT22;62991;50.040;18.400;2024-02-21T11:03:19;8.80;68.40
74511;DHT22;62991;50.040;18.400;2024-02-21T11:06:20;8.80;67.60
74511;DHT22;62991;50.040;18.400;2024-02-21T11:09:30;8.70;68.20
74511;DHT22;62991;50.040;18.400;2024-02-21T11:12:33;8.90;68.90
74511;DHT22;62991;50.040;18.400;2024-02-21T11:15:34;8.80;67.60
74511;DHT22;62991;50.040;18.400;2024-02-21T11:18:36;8.50;68.10
74511;DHT22;62991;50.040;18.400;2024-02-21T11:21:37;8.60;68.80
74511;DHT22;62991;50.040;18.400;2024-02-21T11:24:38;8.80;68.00
74511;DHT22;62991;50.040;18.400;2024-02-21T11:27:39;8.70;68.20
74511;DHT22;62991;50.040;18.400;2024-02-21T11:30:45;8.50;68.90
74511;DHT22;62991;50.040;18.400;2024-02-21T11:33:47;8.30;69.60
74511;DHT22;62991;50.040;18.400;2024-02-21T11:36:49;8.40;70.40
74511;DHT22;62991;50.040;18.400;2024-02-21T11:39:50;8.50;70.70
74511;DHT22;62991;50.040;18.400;2024-02-21T11:42:59;8.50;71.00
74511;DHT22;62991;50.040;18.400;2024-02-21T11:46:01;8.50;71.90
74511;DHT22;62991;50.040;18.400;2024-02-21T11:49:01;8.60;72.20
74511;DHT22;62991;50.040;18.400;2024-02-21T11:52:04;8.70;71.60
74511;DHT22;62991;50.040;18.400;2024-02-21T11:55:05;8.60;71.30
74511;DHT22;62991;50.040;18.400;2024-02-21T11:58:08;8.60;71.90
74511;DHT22;62991;50.040;18.400;2024-02-21T12:01:09;8.60;73.00
74511;DHT22;62991;50.040;18.400;2024-02-21T12:04:10;8.70;73.10
74511;DHT22;62991;50.040;18.400;2024-02-21T12:07:11;8.60;72.80
74511;DHT22;62991;50.040;18.400;2024-02-21T12:10:13;8.50;72.90
74511;DHT22;62991;50.040;18.400;2024-02-21T12:13:14;8.50;73.50
74511;DHT22;62991;50.040;18.400;2024-02-21T12:16:17;8.60;73.70
74511;DHT22;62991;50.040;18.400;2024-02-21T12:19:18;8.70;73.50
74511;DHT22;62991;50.040;18.400;2024-02-21T12:22:20;8.50;73.30
74511;DHT22;62991;50.040;18.400;2024-02-21T12:25:23;8.40;74.60
74511;DHT22;62991;50.040;18.400;2024-02-21T12:28:26;8.50;74.00
74511;DHT22;62991;50.040;18.400;2024-02-21T12:31:27;8.60;73.80
74511;DHT22;62991;50.040;18.400;2024-02-21T12:34:28;8.70;74.30
74511;DHT22;62991;50.040;18.400;2024-02-21T12:37:32;8.70;74.60
74511;DHT22;62991;50.040;18.400;2024-02-21T12:40:33;8.70;73.50
74511;DHT22;62991;50.040;18.400;2024-02-21T12:43:34;8.60;75.20
74511;DHT22;62991;50.040;18.400;2024-02-21T12:46:35;8.60;75.20
74511;DHT22;62991;50.040;18.400;2024-02-21T12:49:36;8.60;75.20
74511;DHT22;62991;50.040;18.400;2024-02-21T12:52:36;8.60;75.80
74511;DHT22;62991;50.040;18.400;2024-02-21T12:55:37;8.60;76.00
74511;DHT22;62991;50.040;18.400;2024-02-21T12:58:39;8.60;75.90
74511;DHT22;62991;50.040;18.400;2024-02-21T13:01:39;8.60;73.70
74511;DHT22;62991;50.040;18.400;2024-02-21T13:04:40;8.60;72.50
74511;DHT22;62991;50.040;18.400;2024-02-21T13:07:41;8.60;71.90
74511;DHT22;62991;50.040;18.400;2024-02-21T13:10:43;8.30;71.90
74511;DHT22;62991;50.040;18.400;2024-02-21T13:13:44;8.30;72.20
74511;DHT22;62991;50.040;18.400;2024-02-21T13:16:44;8.40;72.40
74511;DHT22;62991;50.040;18.400;2024-02-21T13:19:45;8.40;72.90
74511;DHT22;62991;50.040;18.400;2024-02-21T13:22:46;8.30;72.40
74511;DHT22;62991;50.040;18.400;2024-02-21T13:25:47;8.20;72.80
74511;DHT22;62991;50.040;18.400;2024-02-21T13:28:47;8.20;73.30
74511;DHT22;62991;50.040;18.400;2024-02-21T13:31:48;8.20;73.10
74511;DHT22;62991;50.040;18.400;2024-02-21T13:34:50;8.00;73.60
74511;DHT22;62991;50.040;18.400;2024-02-21T13:37:52;8.10;73.80
74511;DHT22;62991;50.040;18.400;2024-02-21T13:40:53;8.10;74.00
74511;DHT22;62991;50.040;18.400;2024-02-21T13:43:54;8.10;73.30
74511;DHT22;62991;50.040;18.400;2024-02-21T13:46:55;8.00;73.40
74511;DHT22;62991;50.040;18.400;2024-02-21T13:49:55;8.10;74.10
74511;DHT22;62991;50.040;18.400;2024-02-21T13:52:56;8.20;73.50
74511;DHT22;62991;50.040;18.400;2024-02-21T13:55:57;8.30;72.90
74511;DHT22;62991;50.040;18.400;2024-02-21T13:58:58;8.30;73.50
74511;DHT22;62991;50.040;18.400;2024-02-21T14:02:00;8.40;73.00
74511;DHT22;62991;50.040;18.400;2024-02-21T14:05:01;8.50;72.60
74511;DHT22;62991;50.040;18.400;2024-02-21T14:08:01;8.30;73.70
74511;DHT22;62991;50.040;18.400;2024-02-21T14:11:02;8.40;73.60
74511;DHT22;62991;50.040;18.400;2024-02-21T14:14:06;8.20;74.10
74511;DHT22;62991;50.040;18.400;2024-02-21T14:17:07;8.00;74.80
74511;DHT22;62991;50.040;18.400;2024-02-21T14:20:08;8.20;74.30
74511;DHT22;62991;50.040;18.400;2024-02-21T14:23:09;8.50;72.90
74511;DHT22;62991;50.040;18.400;2024-02-21T14:26:09;8.90;72.60
74511;DHT22;62991;50.040;18.400;2024-02-21T14:29:10;10.60;68.00
74511;DHT22;62991;50.040;18.400;2024-02-21T14:32:13;12.60;61.20
74511;DHT22;62991;50.040;18.400;2024-02-21T14:35:13;12.40;59.50
74511;DHT22;62991;50.040;18.400;2024-02-21T14:38:15;11.00;63.20
74511;DHT22;62991;50.040;18.400;2024-02-21T14:41:18;10.60;65.00
74511;DHT22;62991;50.040;18.400;2024-02-21T14:44:18;10.10;67.00
74511;DHT22;62991;50.040;18.400;2024-02-21T14:47:19;9.50;68.90
74511;DHT22;62991;50.040;18.400;2024-02-21T14:50:20;9.20;70.60
74511;DHT22;62991;50.040;18.400;2024-02-21T14:53:20;9.40;68.90
74511;DHT22;62991;50.040;18.400;2024-02-21T14:56:21;10.10;68.20
74511;DHT22;62991;50.040;18.400;2024-02-21T14:59:23;10.90;64.00
74511;DHT22;62991;50.040;18.400;2024-02-21T15:02:24;10.60;64.00
74511;DHT22;62991;50.040;18.400;2024-02-21T15:05:25;9.80;65.40
74511;DHT22;62991;50.040;18.400;2024-02-21T15:08:26;9.90;66.50
74511;DHT22;62991;50.040;18.400;2024-02-21T15:11:28;9.90;65.40
74511;DHT22;62991;50.040;18.400;2024-02-21T15:14:28;10.20;65.00
74511;DHT22;62991;50.040;18.400;2024-02-21T15:17:29;10.40;64.30
74511;DHT22;62991;50.040;18.400;2024-02-21T15:20:29;10.70;63.10
74511;DHT22;62991;50.040;18.400;2024-02-21T15:23:31;10.90;63.00
74511;DHT22;62991;50.040;18.400;2024-02-21T15:26:31;10.50;64.00
74511;DHT22;62991;50.040;18.400;2024-02-21T15:29:32;10.40;63.80
74511;DHT22;62991;50.040;18.400;2024-02-21T15:32:33;10.40;64.50
74511;DHT22;62991;50.040;18.400;2024-02-21T15:35:33;10.40;63.80
74511;DHT22;62991;50.040;18.400;2024-02-21T15:38:34;10.50;63.70
74511;DHT22;62991;50.040;18.400;2024-02-21T15:41:35;10.40;63.20
74511;DHT22;62991;50.040;18.400;2024-02-21T15:44:36;10.30;63.40
74511;DHT22;62991;50.040;18.400;2024-02-21T15:47:36;10.00;63.90
74511;DHT22;62991;50.040;18.400;2024-02-21T15:50:37;10.10;63.80
74511;DHT22;62991;50.040;18.400;2024-02-21T15:53:38;10.00;63.30
74511;DHT22;62991;50.040;18.400;2024-02-21T15:56:38;9.50;63.90
74511;DHT22;62991;50.040;18.400;2024-02-21T15:59:39;9.10;65.50
74511;DHT22;62991;50.040;18.400;2024-02-21T16:02:40;9.10;65.60
74511;DHT22;62991;50.040;18.400;2024-02-21T16:05:44;8.90;66.20
74511;DHT22;62991;50.040;18.400;2024-02-21T16:08:45;8.80;66.70
74511;DHT22;62991;50.040;18.400;2024-02-21T16:11:47;8.60;67.40
74511;DHT22;62991;50.040;18.400;2024-02-21T16:14:48;8.40;68.00
74511;DHT22;62991;50.040;18.400;2024-02-21T16:17:49;8.30;68.30
74511;DHT22;62991;50.040;18.400;2024-02-21T16:20:49;8.10;68.80
74511;DHT22;62991;50.040;18.400;2024-02-21T16:23:50;8.10;69.00
74511;DHT22;62991;50.040;18.400;2024-02-21T16:26:51;7.90;70.00
74511;DHT22;62991;50.040;18.400;2024-02-21T16:29:51;7.90;70.20
74511;DHT22;62991;50.040;18.400;2024-02-21T16:32:52;7.90;70.40
74511;DHT22;62991;50.040;18.400;2024-02-21T16:35:53;7.80;71.10
74511;DHT22;62991;50.040;18.400;2024-02-21T16:38:57;7.70;71.60
74511;DHT22;62991;50.040;18.400;2024-02-21T16:41:57;7.70;71.80
74511;DHT22;62991;50.040;18.400;2024-02-21T16:45:03;7.60;71.90
74511;DHT22;62991;50.040;18.400;2024-02-21T16:48:06;7.60;71.90
74511;DHT22;62991;50.040;18.400;2024-02-21T16:51:07;7.40;72.70
74511;DHT22;62991;50.040;18.400;2024-02-21T16:54:08;7.40;73.10
74511;DHT22;62991;50.040;18.400;2024-02-21T16:57:09;7.20;73.80
74511;DHT22;62991;50.040;18.400;2024-02-21T17:00:10;7.10;74.30
74511;DHT22;62991;50.040;18.400;2024-02-21T17:03:11;7.00;74.40
74511;DHT22;62991;50.040;18.400;2024-02-21T17:06:12;6.90;74.60
74511;DHT22;62991;50.040;18.400;2024-02-21T17:09:13;6.90;74.80
74511;DHT22;62991;50.040;18.400;2024-02-21T17:12:14;6.90;74.80
74511;DHT22;62991;50.040;18.400;2024-02-21T17:15:15;6.90;74.70
74511;DHT22;62991;50.040;18.400;2024-02-21T17:18:16;6.90;74.90
74511;DHT22;62991;50.040;18.400;2024-02-21T17:21:17;6.90;75.00
74511;DHT22;62991;50.040;18.400;2024-02-21T17:24:18;6.90;74.90
74511;DHT22;62991;50.040;18.400;2024-02-21T17:27:19;6.90;74.60
74511;DHT22;62991;50.040;18.400;2024-02-21T17:30:20;6.80;74.90
74511;DHT22;62991;50.040;18.400;2024-02-21T17:33:21;6.80;75.00
74511;DHT22;62991;50.040;18.400;2024-02-21T17:36:21;6.80;75.10
74511;DHT22;62991;50.040;18.400;2024-02-21T17:39:22;6.70;75.80
74511;DHT22;62991;50.040;18.400;2024-02-21T17:42:25;6.80;75.60
74511;DHT22;62991;50.040;18.400;2024-02-21T17:45:27;6.70;76.10
74511;DHT22;62991;50.040;18.400;2024-02-21T17:48:28;6.80;76.10
74511;DHT22;62991;50.040;18.400;2024-02-21T17:51:28;6.70;76.40
74511;DHT22;62991;50.040;18.400;2024-02-21T17:54:29;6.60;77.00
74511;DHT22;62991;50.040;18.400;2024-02-21T17:57:30;6.60;77.10
74511;DHT22;62991;50.040;18.400;2024-02-21T18:00:30;6.50;77.80
74511;DHT22;62991;50.040;18.400;2024-02-21T18:03:32;6.60;77.70
74511;DHT22;62991;50.040;18.400;2024-02-21T18:06:32;6.50;77.40
74511;DHT22;62991;50.040;18.400;2024-02-21T18:09:34;6.60;77.50
74511;DHT22;62991;50.040;18.400;2024-02-21T18:12:34;6.60;77.30
74511;DHT22;62991;50.040;18.400;2024-02-21T18:15:35;6.80;76.60
74511;DHT22;62991;50.040;18.400;2024-02-21T18:18:36;6.60;77.20
74511;DHT22;62991;50.040;18.400;2024-02-21T18:21:37;6.50;77.50
74511;DHT22;62991;50.040;18.400;2024-02-21T18:24:37;6.50;77.30
74511;DHT22;62991;50.040;18.400;2024-02-21T18:27:39;6.50;77.50
74511;DHT22;62991;50.040;18.400;2024-02-21T18:30:40;6.50;77.00
74511;DHT22;62991;50.040;18.400;2024-02-21T18:33:41;6.40;77.40
74511;DHT22;62991;50.040;18.400;2024-02-21T18:36:45;6.40;77.30
74511;DHT22;62991;50.040;18.400;2024-02-21T18:39:48;6.30;77.60
74511;DHT22;62991;50.040;18.400;2024-02-21T18:42:49;6.40;77.30
74511;DHT22;62991;50.040;18.400;2024-02-21T18:45:50;6.50;77.10
74511;DHT22;62991;50.040;18.400;2024-02-21T18:48:51;6.50;76.50
74511;DHT22;62991;50.040;18.400;2024-02-21T18:51:51;6.50;76.30
74511;DHT22;62991;50.040;18.400;2024-02-21T18:54:52;6.50;76.60
74511;DHT22;62991;50.040;18.400;2024-02-21T18:57:53;6.40;76.80
74511;DHT22;62991;50.040;18.400;2024-02-21T19:00:53;6.50;76.70
74511;DHT22;62991;50.040;18.400;2024-02-21T19:03:54;6.50;76.50
74511;DHT22;62991;50.040;18.400;2024-02-21T19:06:55;6.50;76.40